Time;durP1;ratioP1;P1;durP2;ratioP2;P2;SDS_P1;SDS_P2;PMS_P1;PMS_P2;Temp;Humidity;BMP_temperature;BMP_pressure;BME280_temperature;BME280_humidity;BME280_pressure;Samples;Min_cycle;Max_cycle;Signal;HPM_P1;HPM_P2
2021/07/02 00:02:04;;;;;;;6.92;3.65;;;;;;;16.26;73.93;96875.00;1754230;79;25934;-82
2021/07/02 00:04:33;;;;;;;10.13;4.60;;;;;;;16.25;73.89;96873.36;1786794;80;25695;-82
2021/07/02 00:07:01;;;;;;;7.62;3.87;;;;;;;16.23;73.83;96865.98;1751637;80;25765;-82
2021/07/02 00:09:27;;;;;;;7.92;3.83;;;;;;;16.18;73.90;96862.70;1752643;80;25705;-82
2021/07/02 00:11:54;;;;;;;12.75;5.72;;;;;;;16.17;73.88;96867.86;1786977;80;27631;-82
2021/07/02 00:14:20;;;;;;;7.55;4.20;;;;;;;16.12;73.88;96863.19;1787244;79;25719;-82
2021/07/02 00:16:47;;;;;;;8.68;4.17;;;;;;;16.08;73.94;96861.23;1781028;79;25728;-81
2021/07/02 00:19:14;;;;;;;5.58;4.28;;;;;;;16.02;73.99;96866.36;1758707;80;26611;-83
2021/07/02 00:21:40;;;;;;;10.80;3.85;;;;;;;15.88;73.95;96860.52;1751699;80;26432;-81
2021/07/02 00:24:07;;;;;;;5.90;4.28;;;;;;;15.82;74.16;96862.89;1787189;80;27210;-81
2021/07/02 00:26:35;;;;;;;9.45;4.28;;;;;;;15.81;74.37;96864.83;1786503;80;25800;-80
2021/07/02 00:29:03;;;;;;;5.53;4.03;;;;;;;15.82;74.46;96869.70;1773809;79;25777;-82
2021/07/02 00:31:30;;;;;;;8.55;4.30;;;;;;;15.73;74.45;96856.28;1770369;80;25910;-82
2021/07/02 00:33:56;;;;;;;10.08;4.00;;;;;;;15.77;74.61;96851.98;1786844;79;25840;-81
2021/07/02 00:36:23;;;;;;;4.70;4.20;;;;;;;15.77;74.67;96846.53;1787559;80;27410;-82
2021/07/02 00:38:50;;;;;;;9.08;3.98;;;;;;;15.77;74.71;96843.81;1757916;80;25811;-82
2021/07/02 00:41:16;;;;;;;9.43;3.80;;;;;;;15.79;74.71;96844.38;1750785;80;25751;-81
2021/07/02 00:43:55;;;;;;;9.45;3.65;;;;;;;15.80;74.70;96844.66;1750962;80;25791;-82
2021/07/02 00:46:23;;;;;;;7.00;3.95;;;;;;;15.80;74.72;96850.11;1787611;80;25755;-80
2021/07/02 00:48:49;;;;;;;5.70;3.95;;;;;;;15.76;74.74;96857.13;1787492;80;27383;-81
2021/07/02 00:51:17;;;;;;;5.87;4.00;;;;;;;15.65;74.66;96858.94;1756965;80;25816;-81
2021/07/02 00:53:45;;;;;;;5.33;3.60;;;;;;;15.59;74.74;96856.41;1750681;80;25723;-81
2021/07/02 00:56:15;;;;;;;11.08;4.67;;;;;;;15.62;74.88;96868.14;1777679;80;25919;-81
2021/07/02 00:58:42;;;;;;;11.75;3.75;;;;;;;15.64;74.93;96869.53;1772493;80;25805;-82
2021/07/02 01:01:16;;;;;;;8.45;3.52;;;;;;;15.67;74.92;96866.84;1750566;80;28317;-82
2021/07/02 01:03:45;;;;;;;9.33;4.20;;;;;;;15.69;74.85;96866.06;1766709;80;25716;-83
2021/07/02 01:06:15;;;;;;;7.97;3.40;;;;;;;15.71;74.89;96865.23;1753768;80;25763;-82
2021/07/02 01:08:43;;;;;;;9.98;3.37;;;;;;;15.72;74.89;96866.88;1753190;81;25846;-82
2021/07/02 01:11:11;;;;;;;7.55;3.45;;;;;;;15.67;74.83;96862.77;1760639;81;25239;-82
2021/07/02 01:13:38;;;;;;;4.60;3.35;;;;;;;15.67;74.92;96865.48;1753891;80;27654;-82
2021/07/02 01:16:05;;;;;;;6.42;3.55;;;;;;;15.67;74.90;96855.42;1766280;79;26381;-82
2021/07/02 01:18:32;;;;;;;6.50;3.50;;;;;;;15.65;74.92;96847.23;1786751;80;25226;-81
2021/07/02 01:20:58;;;;;;;6.10;3.83;;;;;;;15.69;74.96;96851.09;1744744;80;26406;-81
2021/07/02 01:23:27;;;;;;;7.42;3.52;;;;;;;15.65;74.87;96850.77;1766496;80;26334;-82
2021/07/02 01:25:55;;;;;;;10.95;3.80;;;;;;;15.65;75.02;96852.67;1758259;80;27543;-81
2021/07/02 01:28:22;;;;;;;6.22;3.42;;;;;;;15.64;75.04;96845.59;1734056;82;26273;-81
2021/07/02 01:30:48;;;;;;;5.53;3.50;;;;;;;15.60;74.98;96833.03;1738979;81;25698;-82
2021/07/02 01:33:16;;;;;;;7.80;3.70;;;;;;;15.62;75.07;96835.50;1786471;78;26504;-81
2021/07/02 01:35:43;;;;;;;6.45;3.35;;;;;;;15.63;75.01;96827.62;1769208;78;25720;-81
2021/07/02 01:38:10;;;;;;;12.13;3.83;;;;;;;15.60;74.98;96825.41;1778265;80;28187;-81
2021/07/02 01:40:36;;;;;;;7.17;3.95;;;;;;;15.55;74.99;96827.55;1765427;79;25932;-82
2021/07/02 01:43:03;;;;;;;5.92;3.62;;;;;;;15.54;74.98;96829.14;1773105;79;25722;-82
2021/07/02 01:45:30;;;;;;;8.28;3.47;;;;;;;15.46;74.88;96832.58;1765358;80;25832;-82
2021/07/02 01:47:57;;;;;;;6.50;3.70;;;;;;;15.42;74.96;96829.29;1750226;80;25757;-82
2021/07/02 01:50:25;;;;;;;7.97;3.83;;;;;;;15.40;75.01;96818.66;1787197;80;28251;-82
2021/07/02 01:52:53;;;;;;;6.75;3.50;;;;;;;15.37;75.02;96827.33;1786971;80;26416;-82
2021/07/02 01:55:21;;;;;;;6.60;3.70;;;;;;;15.35;75.07;96820.49;1787103;80;25761;-81
2021/07/02 01:57:52;;;;;;;8.55;3.50;;;;;;;15.28;75.02;96829.40;1786891;80;25909;-81
2021/07/02 02:00:18;;;;;;;6.95;3.70;;;;;;;15.24;75.20;96831.80;1787049;79;25724;-82
2021/07/02 02:02:44;;;;;;;5.25;3.42;;;;;;;15.20;75.23;96830.69;1786929;80;27374;-82
2021/07/02 02:05:11;;;;;;;4.12;3.47;;;;;;;15.21;75.38;96832.33;1750155;80;25734;-82
2021/07/02 02:07:38;;;;;;;6.65;3.42;;;;;;;15.23;75.47;96832.87;1787493;80;25789;-82
2021/07/02 02:10:06;;;;;;;10.85;3.87;;;;;;;15.21;75.45;96839.13;1787244;80;25873;-82
2021/07/02 02:12:32;;;;;;;3.83;3.30;;;;;;;15.18;75.53;96836.91;1787302;79;25701;-81
2021/07/02 02:14:59;;;;;;;12.95;3.42;;;;;;;15.15;75.54;96838.77;1787040;79;27359;-81
2021/07/02 02:17:25;;;;;;;4.15;3.60;;;;;;;15.15;75.71;96837.41;1786886;80;26055;-82
2021/07/02 02:19:52;;;;;;;6.80;3.33;;;;;;;15.14;75.75;96831.15;1787179;80;25724;-82
2021/07/02 02:22:19;;;;;;;6.80;3.22;;;;;;;15.18;75.80;96840.98;1750201;80;25737;-82
2021/07/02 02:24:45;;;;;;;11.03;3.72;;;;;;;15.19;75.85;96834.48;1787268;79;25661;-82
2021/07/02 02:27:12;;;;;;;7.50;3.72;;;;;;;15.17;75.91;96835.27;1750579;79;27425;-82
2021/07/02 02:29:39;;;;;;;4.45;3.75;;;;;;;15.20;76.06;96839.38;1786934;79;25842;-82
2021/07/02 02:32:07;;;;;;;10.85;4.15;;;;;;;15.16;76.03;96839.05;1786813;79;25735;-82
2021/07/02 02:34:34;;;;;;;8.48;3.90;;;;;;;15.17;76.09;96837.98;1787005;80;25851;-82
2021/07/02 02:37:00;;;;;;;6.85;4.08;;;;;;;15.18;76.10;96837.45;1787006;80;25775;-81
2021/07/02 02:39:27;;;;;;;9.00;4.28;;;;;;;15.16;76.09;96836.34;1770407;79;28305;-82
2021/07/02 02:41:53;;;;;;;11.38;4.22;;;;;;;15.18;76.20;96835.55;1767257;80;25753;-81
2021/07/02 02:44:20;;;;;;;5.58;3.75;;;;;;;15.21;76.24;96831.50;1787295;80;25755;-81
2021/07/02 02:46:47;;;;;;;7.05;4.05;;;;;;;15.23;76.32;96832.87;1787030;80;25837;-81
2021/07/02 02:49:13;;;;;;;5.33;3.90;;;;;;;15.19;76.25;96836.38;1780124;79;25716;-81
2021/07/02 02:51:40;;;;;;;7.90;4.30;;;;;;;15.20;76.33;96841.56;1747954;81;27526;-81
2021/07/02 02:54:07;;;;;;;8.13;3.70;;;;;;;15.19;76.30;96843.17;1760724;79;25719;-82
2021/07/02 02:56:33;;;;;;;7.15;3.90;;;;;;;15.17;76.35;96850.75;1756403;81;25844;-81
2021/07/02 02:59:00;;;;;;;8.78;3.47;;;;;;;15.20;76.46;96847.53;1760816;80;25819;-81
2021/07/02 03:01:27;;;;;;;6.50;3.80;;;;;;;15.23;76.46;96848.36;1746807;79;25756;-82
2021/07/02 03:03:56;;;;;;;5.55;3.98;;;;;;;15.26;76.43;96854.66;1751971;81;28303;-81
2021/07/02 03:06:23;;;;;;;9.50;3.58;;;;;;;15.28;76.39;96858.77;1758688;81;26421;-81
2021/07/02 03:08:49;;;;;;;9.70;4.00;;;;;;;15.31;76.46;96865.07;1749708;80;25777;-81
2021/07/02 03:11:18;;;;;;;7.35;3.47;;;;;;;15.35;76.52;96866.72;1749205;79;25630;-81
2021/07/02 03:13:44;;;;;;;11.43;3.95;;;;;;;15.38;76.50;96867.04;1761460;79;25755;-81
2021/07/02 03:16:11;;;;;;;5.40;3.62;;;;;;;15.40;76.51;96862.17;1757627;81;28184;-82
2021/07/02 03:18:38;;;;;;;8.50;4.05;;;;;;;15.44;76.52;96857.88;1743263;81;25746;-81
2021/07/02 03:21:04;;;;;;;5.10;3.58;;;;;;;15.46;76.54;96848.90;1743210;81;25714;-81
2021/07/02 03:23:31;;;;;;;5.65;4.10;;;;;;;15.49;76.51;96854.38;1763571;79;26514;-81
2021/07/02 03:25:58;;;;;;;10.55;3.98;;;;;;;15.52;76.60;96854.41;1760520;80;25745;-81
2021/07/02 03:28:24;;;;;;;8.53;3.92;;;;;;;15.53;76.55;96852.80;1760820;80;27814;-82
2021/07/02 03:30:51;;;;;;;5.50;3.75;;;;;;;15.55;76.46;96856.66;1734913;81;25967;-81
2021/07/02 03:33:17;;;;;;;4.78;3.80;;;;;;;15.58;76.49;96861.59;1746287;79;25745;-82
2021/07/02 03:35:44;;;;;;;6.33;4.20;;;;;;;15.58;76.47;96861.59;1761808;79;26180;-82
2021/07/02 03:38:10;;;;;;;7.50;3.65;;;;;;;15.56;76.41;96856.94;1762081;79;25818;-82
2021/07/02 03:40:37;;;;;;;9.45;4.22;;;;;;;15.61;76.49;96867.32;1742392;81;28273;-82
2021/07/02 03:43:04;;;;;;;10.95;3.98;;;;;;;15.64;76.48;96859.19;1739764;81;25671;-82
2021/07/02 03:45:30;;;;;;;7.87;3.92;;;;;;;15.67;76.38;96854.60;1760685;81;25673;-82
2021/07/02 03:47:57;;;;;;;7.10;3.80;;;;;;;15.74;76.40;96856.56;1758404;80;25897;-80
2021/07/02 03:50:23;;;;;;;5.30;3.75;;;;;;;15.83;76.34;96855.02;1746202;79;25524;-80
2021/07/02 03:52:50;;;;;;;4.45;3.90;;;;;;;15.88;76.24;96857.80;1761671;79;28154;-81
2021/07/02 03:55:17;;;;;;;8.25;4.50;;;;;;;15.92;76.15;96853.48;1760561;80;26533;-80
2021/07/02 03:57:43;;;;;;;8.08;4.67;;;;;;;15.98;76.07;96852.44;1742830;81;25674;-81
2021/07/02 04:00:11;;;;;;;8.38;4.47;;;;;;;16.00;75.91;96854.36;1751773;81;25761;-80
2021/07/02 04:02:37;;;;;;;7.05;4.37;;;;;;;15.97;75.88;96852.69;1755883;81;26573;-80
2021/07/02 04:05:04;;;;;;;9.20;4.50;;;;;;;15.98;75.98;96852.44;1745178;81;27364;-80
2021/07/02 04:07:31;;;;;;;23.57;5.20;;;;;;;16.04;75.98;96851.95;1764796;79;25692;-80
2021/07/02 04:09:58;;;;;;;10.25;5.00;;;;;;;16.08;76.02;96853.88;1764780;81;26327;-81
2021/07/02 04:12:25;;;;;;;12.05;4.97;;;;;;;16.06;76.01;96851.95;1762486;79;26598;-80
2021/07/02 04:14:51;;;;;;;10.98;5.00;;;;;;;16.08;76.07;96847.08;1758906;81;25818;-80
2021/07/02 04:17:18;;;;;;;9.55;4.67;;;;;;;16.10;76.05;96848.18;1734499;81;27235;-81
2021/07/02 04:19:44;;;;;;;8.28;4.50;;;;;;;16.13;76.02;96849.03;1734547;81;25722;-80
2021/07/02 04:22:11;;;;;;;7.65;5.00;;;;;;;16.16;76.02;96850.70;1734698;81;25649;-81
2021/07/02 04:24:38;;;;;;;9.68;4.72;;;;;;;16.14;75.96;96848.77;1733654;81;26791;-81
2021/07/02 04:27:04;;;;;;;11.68;5.20;;;;;;;16.11;76.05;96846.56;1759481;81;25267;-80
2021/07/02 04:29:31;;;;;;;9.33;4.75;;;;;;;16.10;76.15;96850.36;1762980;81;27415;-80
2021/07/02 04:31:58;;;;;;;11.73;5.58;;;;;;;16.13;76.04;96852.58;1763760;81;25847;-81
2021/07/02 04:34:24;;;;;;;9.50;5.12;;;;;;;16.17;76.08;96856.43;1752299;81;25736;-80
2021/07/02 04:36:51;;;;;;;9.25;5.47;;;;;;;16.13;76.03;96857.20;1745027;81;25805;-81
2021/07/02 04:39:19;;;;;;;10.65;4.58;;;;;;;16.11;75.88;96855.27;1752836;80;26033;-80
2021/07/02 04:41:46;;;;;;;14.70;5.45;;;;;;;16.12;75.89;96858.28;1734004;81;27551;-80
2021/07/02 04:44:13;;;;;;;9.83;4.60;;;;;;;16.12;76.08;96860.46;1742752;81;25728;-81
2021/07/02 04:46:39;;;;;;;20.10;8.33;;;;;;;16.14;76.20;96856.12;1760651;79;25762;-80
2021/07/02 04:49:06;;;;;;;19.55;10.15;;;;;;;16.12;76.23;96859.09;1765462;79;25692;-80
2021/07/02 04:51:33;;;;;;;18.07;8.93;;;;;;;16.17;76.31;96859.16;1752845;79;26340;-80
2021/07/02 04:53:59;;;;;;;14.23;7.55;;;;;;;16.24;76.12;96864.91;1742360;80;27351;-80
2021/07/02 04:56:26;;;;;;;15.20;7.17;;;;;;;16.29;76.00;96865.78;1743679;81;25770;-82
2021/07/02 04:58:56;;;;;;;11.97;7.20;;;;;;;16.33;75.92;96875.05;1764762;79;25753;-87
2021/07/02 05:01:25;;;;;;;19.05;9.45;;;;;;;16.37;76.02;96879.45;1761837;80;26469;-84
2021/07/02 05:03:51;;;;;;;14.30;8.60;;;;;;;16.40;76.17;96885.74;1764868;81;25788;-85
2021/07/02 05:06:19;;;;;;;15.85;8.35;;;;;;;16.40;76.21;96885.20;1738536;81;27551;-85
2021/07/02 05:08:46;;;;;;;15.13;8.75;;;;;;;16.34;76.36;96886.77;1746918;81;25805;-85
2021/07/02 05:11:13;;;;;;;18.80;9.50;;;;;;;16.29;76.65;96888.11;1742595;81;25723;-85
2021/07/02 05:13:41;;;;;;;13.40;7.97;;;;;;;16.26;76.80;96887.25;1764630;80;25833;-84
2021/07/02 05:16:09;;;;;;;12.13;8.13;;;;;;;16.30;76.84;96889.19;1761170;81;25705;-85
2021/07/02 05:18:36;;;;;;;10.68;7.75;;;;;;;16.36;76.80;96888.70;1742823;81;26919;-85
2021/07/02 05:21:03;;;;;;;12.73;8.70;;;;;;;16.37;76.95;96890.34;1743875;81;25737;-85
2021/07/02 05:23:29;;;;;;;12.35;8.98;;;;;;;16.31;77.07;96888.64;1753918;79;25792;-85
2021/07/02 05:25:56;;;;;;;10.63;9.53;;;;;;;16.28;77.19;96891.91;1734561;81;25830;-85
2021/07/02 05:28:22;;;;;;;11.08;9.93;;;;;;;16.20;77.26;96894.01;1751507;79;25753;-86
2021/07/02 05:30:49;;;;;;;10.68;8.48;;;;;;;16.19;77.41;96891.00;1735519;81;27623;-86
2021/07/02 05:33:16;;;;;;;10.93;9.08;;;;;;;16.23;77.43;96896.77;1733890;81;25777;-86
2021/07/02 05:35:42;;;;;;;13.08;8.55;;;;;;;16.27;77.36;96902.52;1738493;81;25734;-86
2021/07/02 05:38:09;;;;;;;8.80;7.30;;;;;;;16.28;77.33;96899.54;1747720;81;26618;-84
2021/07/02 05:40:35;;;;;;;8.13;7.03;;;;;;;16.33;77.34;96905.55;1750753;81;25661;-84
2021/07/02 05:43:02;;;;;;;11.50;7.95;;;;;;;16.35;77.25;96904.75;1740875;81;27528;-86
2021/07/02 05:45:30;;;;;;;9.33;7.37;;;;;;;16.37;77.21;96906.69;1752460;81;25341;-86
2021/07/02 05:48:00;;;;;;;12.37;7.55;;;;;;;16.37;77.19;96903.95;1750049;81;25711;-86
2021/07/02 05:50:27;;;;;;;11.53;6.83;;;;;;;16.35;77.21;96905.58;1751069;79;25712;-86
2021/07/02 05:52:55;;;;;;;7.60;6.72;;;;;;;16.32;77.40;96907.98;1764664;79;25969;-86
2021/07/02 05:55:23;;;;;;;9.10;7.30;;;;;;;16.26;77.45;96903.59;1760015;81;27392;-85
2021/07/02 05:57:50;;;;;;;9.85;7.12;;;;;;;16.23;77.57;96909.02;1763192;79;26563;-85
2021/07/02 06:00:19;;;;;;;15.45;8.03;;;;;;;16.21;77.66;96909.27;1757758;79;25776;-85
2021/07/02 06:02:46;;;;;;;11.00;6.95;;;;;;;16.19;77.79;96899.17;1749958;79;25749;-85
2021/07/02 06:05:12;;;;;;;9.38;7.12;;;;;;;16.20;77.87;96901.36;1740276;81;25764;-85
2021/07/02 06:07:47;;;;;;;9.28;7.90;;;;;;;16.19;77.90;96903.26;1761991;79;27520;-85
2021/07/02 06:10:16;;;;;;;10.55;8.08;;;;;;;16.25;77.99;96904.14;1754147;79;26176;-86
2021/07/02 06:12:43;;;;;;;9.80;7.47;;;;;;;16.26;78.13;96908.50;1763436;81;25785;-85
2021/07/02 06:15:13;;;;;;;9.83;7.62;;;;;;;16.31;78.18;96909.89;1746325;81;26589;-85
2021/07/02 06:17:41;;;;;;;10.85;8.05;;;;;;;16.35;78.19;96910.20;1748985;81;25693;-85
2021/07/02 06:20:09;;;;;;;14.05;8.35;;;;;;;16.40;78.07;96914.34;1753364;81;27428;-86
2021/07/02 06:22:37;;;;;;;9.25;8.40;;;;;;;16.40;78.20;96914.34;1739488;81;26007;-87
2021/07/02 06:25:07;;;;;;;10.20;9.20;;;;;;;16.39;78.29;96916.78;1761271;81;25729;-86
2021/07/02 06:27:34;;;;;;;10.85;9.70;;;;;;;16.41;78.33;96914.63;1738842;81;26350;-86
2021/07/02 06:30:01;;;;;;;12.80;9.78;;;;;;;16.39;78.28;96916.78;1749153;79;26354;-87
2021/07/02 06:32:28;;;;;;;11.60;9.08;;;;;;;16.35;78.05;96917.02;1749060;81;27525;-85
2021/07/02 06:34:54;;;;;;;11.28;10.05;;;;;;;16.37;77.90;96916.22;1735670;82;25877;-87
2021/07/02 06:37:21;;;;;;;11.08;10.00;;;;;;;16.36;77.79;96912.67;1737011;81;25765;-85
2021/07/02 06:39:47;;;;;;;13.08;10.38;;;;;;;16.35;77.82;96916.47;1733245;81;25801;-86
2021/07/02 06:42:14;;;;;;;11.80;10.25;;;;;;;16.36;77.84;96921.37;1739970;81;25676;-85
2021/07/02 06:44:41;;;;;;;11.05;9.90;;;;;;;16.39;77.77;96923.59;1736221;81;27522;-86
2021/07/02 06:47:07;;;;;;;13.95;10.53;;;;;;;16.32;77.70;96920.25;1740992;81;26402;-87
2021/07/02 06:49:34;;;;;;;12.75;10.48;;;;;;;16.30;77.73;96918.34;1733596;81;25771;-85
2021/07/02 06:52:01;;;;;;;11.50;10.30;;;;;;;16.33;77.75;96923.25;1733643;81;25882;-85
2021/07/02 06:54:27;;;;;;;11.85;10.30;;;;;;;16.32;77.74;96921.61;1745257;80;25833;-86
2021/07/02 06:57:00;;;;;;;11.97;9.88;;;;;;;16.30;77.68;96925.95;1725229;81;27427;-86
2021/07/02 06:59:31;;;;;;;11.60;9.58;;;;;;;16.30;77.71;96936.05;1733354;81;25797;-84
2021/07/02 07:01:58;;;;;;;10.85;9.23;;;;;;;16.30;77.77;96929.24;1742615;81;25730;-85
2021/07/02 07:04:29;;;;;;;10.48;7.78;;;;;;;16.27;77.85;96926.48;1766761;80;26456;-87
2021/07/02 07:06:55;;;;;;;8.75;7.95;;;;;;;16.25;77.73;96930.55;1737590;81;25728;-83
2021/07/02 07:09:21;;;;;;;8.75;7.95;;;;;;;16.23;77.70;96932.70;1745275;81;27524;-84
2021/07/02 07:11:48;;;;;;;8.08;7.28;;;;;;;16.22;77.76;96931.88;1725672;81;26337;-82
2021/07/02 07:14:15;;;;;;;9.20;7.85;;;;;;;16.18;77.77;96928.05;1745869;81;25689;-86
2021/07/02 07:16:41;;;;;;;8.15;7.45;;;;;;;16.19;77.84;96931.84;1738712;80;26691;-83
2021/07/02 07:19:08;;;;;;;10.72;8.55;;;;;;;16.23;77.87;96933.52;1744400;81;25794;-84
2021/07/02 07:21:34;;;;;;;8.10;7.30;;;;;;;16.24;77.84;96935.70;1729732;81;27285;-84
2021/07/02 07:24:01;;;;;;;8.50;7.35;;;;;;;16.26;77.86;96928.93;1725175;81;25955;-83
2021/07/02 07:26:28;;;;;;;8.48;7.22;;;;;;;16.27;77.84;96929.75;1725191;81;25707;-83
2021/07/02 07:28:55;;;;;;;8.35;7.55;;;;;;;16.28;77.88;96935.48;1725153;81;25844;-83
2021/07/02 07:31:21;;;;;;;8.13;7.33;;;;;;;16.30;77.90;96934.12;1725188;81;25799;-83
2021/07/02 07:33:50;;;;;;;10.43;6.83;;;;;;;16.31;77.82;96930.31;1744720;81;28411;-85
2021/07/02 07:36:19;;;;;;;6.85;5.87;;;;;;;16.35;77.92;96941.52;1732073;81;25766;-86
2021/07/02 07:38:45;;;;;;;6.20;5.50;;;;;;;16.36;77.81;96939.91;1752246;81;26472;-84
2021/07/02 07:41:12;;;;;;;6.62;5.37;;;;;;;16.35;77.79;96945.07;1757974;80;25759;-85
2021/07/02 07:43:38;;;;;;;7.08;5.12;;;;;;;16.38;77.81;96932.84;1779782;80;26296;-85
2021/07/02 07:46:08;;;;;;;5.95;5.35;;;;;;;16.41;77.80;96935.05;1779830;80;28261;-84
2021/07/02 07:48:34;;;;;;;6.00;5.30;;;;;;;16.37;77.89;96940.73;1779770;80;25721;-82
2021/07/02 07:51:37;;;;;;;5.90;5.30;;;;;;;16.32;77.97;96949.66;1779642;80;25815;-86
2021/07/02 07:53:35;;;;;;;7.12;6.12;;;;;;;16.23;77.80;96947.67;1771302;80;26383;-84
2021/07/02 07:56:02;;;;;;;7.58;6.37;;;;;;;16.21;78.11;96949.30;1779660;80;25741;-89
2021/07/02 07:58:29;;;;;;;8.00;6.47;;;;;;;16.23;78.21;96950.40;1779416;80;28225;-85
2021/07/02 08:00:55;;;;;;;9.65;7.58;;;;;;;16.24;78.12;96947.96;1779622;80;25954;-87
2021/07/02 08:03:22;;;;;;;7.05;6.42;;;;;;;16.28;78.13;96957.27;1779519;80;25780;-84
2021/07/02 08:05:48;;;;;;;7.22;6.53;;;;;;;16.27;78.09;96953.72;1743248;81;25735;-82
2021/07/02 08:08:16;;;;;;;6.78;6.17;;;;;;;16.29;78.06;96964.36;1742711;82;25827;-83
2021/07/02 08:10:43;;;;;;;7.45;6.25;;;;;;;16.29;77.99;96960.28;1753230;81;27606;-83
2021/07/02 08:13:10;;;;;;;7.10;6.40;;;;;;;16.32;78.04;96964.65;1738789;81;25845;-83
2021/07/02 08:15:36;;;;;;;6.62;6.00;;;;;;;16.33;78.04;96957.30;1755366;81;25918;-85
2021/07/02 08:18:03;;;;;;;6.62;5.80;;;;;;;16.37;78.01;96960.62;1776947;79;25871;-87
2021/07/02 08:20:30;;;;;;;6.70;5.97;;;;;;;16.38;77.88;96962.80;1759546;79;25876;-84
2021/07/02 08:22:56;;;;;;;7.20;6.15;;;;;;;16.34;77.90;96961.67;1746702;80;27359;-84
2021/07/02 08:25:23;;;;;;;8.20;6.08;;;;;;;16.35;77.95;96961.41;1743264;81;25257;-84
2021/07/02 08:30:34;;;;;;;7.15;5.78;;;;;;;16.46;78.04;96960.95;1775359;79;25876;-83
2021/07/02 08:33:01;;;;;;;7.17;6.20;;;;;;;16.49;78.04;96963.17;1756077;81;26411;-86
2021/07/02 08:35:28;;;;;;;6.95;6.03;;;;;;;16.53;78.07;96962.41;1773597;78;28364;-84
2021/07/02 08:37:54;;;;;;;9.15;5.85;;;;;;;16.57;77.98;96966.23;1747386;81;25853;-83
2021/07/02 08:40:22;;;;;;;7.55;6.00;;;;;;;16.61;78.00;96967.08;1751501;80;25756;-83
2021/07/02 08:42:50;;;;;;;7.25;6.47;;;;;;;16.63;77.97;96963.05;1759725;79;26268;-89
2021/07/02 08:45:17;;;;;;;7.70;5.97;;;;;;;16.68;78.08;96971.25;1787267;80;25584;-84
2021/07/02 08:47:44;;;;;;;6.80;6.10;;;;;;;16.72;77.97;96972.38;1787191;80;28312;-82
2021/07/02 08:50:13;;;;;;;6.95;6.25;;;;;;;16.77;77.86;96976.52;1751401;81;25846;-84
2021/07/02 08:52:39;;;;;;;9.95;6.53;;;;;;;16.79;77.92;96978.42;1752956;81;25820;-84
2021/07/02 08:55:06;;;;;;;8.13;5.70;;;;;;;16.85;77.98;96981.48;1749396;81;25749;-83
2021/07/02 08:57:33;;;;;;;6.80;6.20;;;;;;;16.90;77.83;96985.59;1753526;80;25776;-88
2021/07/02 09:00:01;;;;;;;7.22;6.53;;;;;;;16.95;77.89;96971.19;1753227;80;27418;-84
2021/07/02 09:02:32;;;;;;;6.67;5.97;;;;;;;17.05;77.89;96970.42;1771499;80;25709;-85
2021/07/02 09:05:21;;;;;;;6.30;5.60;;;;;;;17.13;77.91;96975.41;1788958;79;25704;-84
2021/07/02 09:07:48;;;;;;;7.30;6.60;;;;;;;17.19;77.59;96970.25;1750968;80;26509;-86
2021/07/02 09:10:15;;;;;;;5.90;5.33;;;;;;;17.25;77.48;96971.94;1731922;81;25677;-87
2021/07/02 09:12:52;;;;;;;8.40;5.67;;;;;;;17.31;77.37;96975.49;1762877;81;27363;-86
2021/07/02 09:15:19;;;;;;;6.58;5.65;;;;;;;17.36;77.17;96974.99;1746658;81;25733;-85
2021/07/02 09:17:56;;;;;;;6.10;5.28;;;;;;;17.43;77.29;96970.11;1756906;81;25702;-86
2021/07/02 09:20:36;;;;;;;6.17;5.62;;;;;;;17.49;77.11;96969.06;1755304;81;25823;-87
2021/07/02 09:23:08;;;;;;;6.65;5.60;;;;;;;17.59;77.00;96967.73;1741107;79;25740;-87
2021/07/02 09:25:47;;;;;;;6.33;5.72;;;;;;;17.61;76.68;96960.65;1737135;81;27684;-86
2021/07/02 09:28:16;;;;;;;7.10;6.03;;;;;;;17.67;76.54;96966.97;1743800;81;25774;-86
2021/07/02 09:30:49;;;;;;;6.35;5.37;;;;;;;17.78;76.50;96964.55;1765164;81;25677;-87
2021/07/02 09:33:19;;;;;;;6.33;5.72;;;;;;;17.87;76.32;96960.23;1757064;81;25814;-87
2021/07/02 09:35:54;;;;;;;8.43;5.90;;;;;;;17.93;76.23;96961.88;1761563;80;25809;-85
2021/07/02 09:38:41;;;;;;;7.30;5.08;;;;;;;18.07;76.38;96958.91;1743880;82;27373;-87
2021/07/02 09:41:10;;;;;;;6.45;5.85;;;;;;;18.20;76.08;96964.41;1776564;80;25864;-88
2021/07/02 09:43:39;;;;;;;8.43;6.22;;;;;;;18.32;75.83;96958.95;1760960;81;25817;-87
2021/07/02 09:46:08;;;;;;;6.60;6.00;;;;;;;18.43;75.65;96959.78;1761292;80;25802;-89
2021/07/02 09:48:42;;;;;;;6.83;5.97;;;;;;;18.50;75.16;96966.34;1744202;82;25928;-88
2021/07/02 09:51:13;;;;;;;5.42;5.03;;;;;;;18.54;74.89;96969.63;1760375;81;27383;-87
2021/07/02 09:53:40;;;;;;;6.53;5.90;;;;;;;18.58;74.68;96969.40;1760981;81;26486;-87
2021/07/02 09:56:12;;;;;;;6.05;5.53;;;;;;;18.55;74.54;96967.17;1761175;80;26426;-87
2021/07/02 09:58:41;;;;;;;6.67;5.95;;;;;;;18.53;74.77;96971.27;1758609;81;25689;-86
2021/07/02 10:01:10;;;;;;;6.22;5.62;;;;;;;18.51;74.56;96977.55;1754905;81;25742;-88
2021/07/02 10:03:39;;;;;;;6.92;6.33;;;;;;;18.53;74.24;96968.53;1776914;80;26823;-86
2021/07/02 10:06:14;;;;;;;5.47;4.97;;;;;;;18.54;74.56;96967.44;1776668;80;25899;-86
2021/07/02 10:08:42;;;;;;;5.40;5.00;;;;;;;18.54;74.22;96966.89;1771061;79;25770;-86
2021/07/02 10:11:12;;;;;;;5.47;5.00;;;;;;;18.54;74.02;96963.34;1776962;80;25764;-86
2021/07/02 10:13:49;;;;;;;5.70;5.20;;;;;;;18.49;73.89;96970.16;1777053;79;25801;-87
2021/07/02 10:16:16;;;;;;;5.62;5.12;;;;;;;18.50;73.51;96971.80;1776929;80;28178;-85
2021/07/02 10:18:59;;;;;;;5.47;5.03;;;;;;;18.44;73.76;96967.44;1763110;80;25732;-87
2021/07/02 10:21:26;;;;;;;5.55;5.05;;;;;;;18.38;73.71;96969.88;1752398;80;25697;-86
2021/07/02 10:23:57;;;;;;;5.33;4.92;;;;;;;18.28;73.81;96972.88;1777020;80;25797;-86
2021/07/02 10:26:28;;;;;;;5.85;5.35;;;;;;;18.31;73.59;96965.52;1777135;80;25703;-87
2021/07/02 10:28:56;;;;;;;6.03;5.30;;;;;;;18.35;73.30;96970.69;1777049;80;27421;-85
2021/07/02 10:31:23;;;;;;;5.62;5.12;;;;;;;18.38;73.12;96974.80;1770423;80;25638;-86
2021/07/02 10:33:54;;;;;;;5.78;5.20;;;;;;;18.43;73.05;96971.27;1745746;80;26422;-86
2021/07/02 10:36:22;;;;;;;5.85;5.12;;;;;;;18.44;72.94;96967.44;1742483;81;25743;-87
2021/07/02 10:38:51;;;;;;;6.50;5.90;;;;;;;18.44;73.09;96968.80;1781579;80;26018;-85
2021/07/02 10:41:25;;;;;;;7.33;5.28;;;;;;;18.42;73.21;96970.98;1786786;79;27395;-83
2021/07/02 10:44:12;;;;;;;6.60;6.00;;;;;;;18.43;73.11;96975.36;1780565;79;25667;-84
2021/07/02 10:46:49;;;;;;;6.42;5.83;;;;;;;18.43;72.99;96974.81;1739903;80;25906;-85
2021/07/02 10:49:17;;;;;;;7.03;6.33;;;;;;;18.49;73.14;96974.26;1778769;79;25676;-85
2021/07/02 10:51:54;;;;;;;9.40;6.97;;;;;;;18.54;73.17;96966.89;1751852;80;25784;-86
2021/07/02 10:54:28;;;;;;;8.03;6.42;;;;;;;18.61;72.93;96974.84;1780475;79;28205;-85
2021/07/02 10:57:00;;;;;;;7.95;6.90;;;;;;;18.60;72.48;96971.83;1768526;79;25809;-85
2021/07/02 10:59:41;;;;;;;8.15;6.60;;;;;;;18.65;72.74;96965.02;1776417;79;25787;-86
2021/07/02 11:02:13;;;;;;;6.55;5.95;;;;;;;18.73;72.49;96964.45;1786694;80;25820;-85
2021/07/02 11:04:47;;;;;;;7.55;6.47;;;;;;;18.85;72.28;96971.83;1784243;79;32399;-85
2021/07/02 11:07:25;;;;;;;6.87;6.30;;;;;;;18.95;72.06;96966.38;1784262;79;27392;-84
2021/07/02 11:10:05;;;;;;;6.87;6.25;;;;;;;19.05;71.85;96962.27;1787423;79;25757;-85
2021/07/02 11:12:52;;;;;;;8.05;7.25;;;;;;;19.19;71.61;96967.16;1788772;79;25790;-84
2021/07/02 11:15:18;;;;;;;7.67;6.62;;;;;;;19.34;71.89;96968.47;1778206;79;25783;-87
2021/07/02 11:18:10;;;;;;;7.62;6.90;;;;;;;19.39;70.89;96958.34;1778194;79;25760;-88
2021/07/02 11:20:36;;;;;;;8.28;7.35;;;;;;;19.40;71.22;96966.01;1741536;82;27422;-86
2021/07/02 11:23:16;;;;;;;7.17;6.58;;;;;;;19.39;70.86;96956.98;1759403;80;26467;-85
2021/07/02 11:25:59;;;;;;;7.55;6.92;;;;;;;19.36;71.23;96952.60;1765979;80;26394;-84
2021/07/02 11:28:21;;;;;;;7.60;6.95;;;;;;;19.48;71.63;96954.48;1750833;81;26505;-85
2021/07/02 11:30:50;;;;;;;;;;;;;;;19.58;71.80;96948.17;1760261;81;25709;-84
2021/07/02 11:33:20;;;;;;;7.50;6.83;;;;;;;19.69;71.56;96949.22;1743116;80;28296;-83
2021/07/02 11:35:57;;;;;;;9.05;7.72;;;;;;;19.76;71.08;96947.56;1753328;79;25894;-84
2021/07/02 11:38:25;;;;;;;7.55;6.85;;;;;;;19.83;71.11;96940.39;1754373;81;26473;-84
2021/07/02 11:41:01;;;;;;;7.80;7.17;;;;;;;19.88;70.88;96930.80;1754958;79;25953;-84